createdAt,value
2022-09-04T00:02:00.518Z,19.87
2022-09-04T00:04:27.965Z,18.43
2022-09-04T00:06:54.841Z,17.83
2022-09-04T00:09:21.647Z,19.35
2022-09-04T00:11:48.741Z,20.27
2022-09-04T00:14:15.547Z,20.72
2022-09-04T00:16:43.094Z,20.96
2022-09-04T00:19:10.053Z,21.05
2022-09-04T00:21:36.836Z,21.29
2022-09-04T00:24:03.697Z,21.33
2022-09-04T00:26:30.509Z,21.46
2022-09-04T00:28:57.314Z,21.55
2022-09-04T00:31:25.838Z,21.70
2022-09-04T00:33:52.658Z,21.81
2022-09-04T00:36:19.438Z,21.85
2022-09-04T00:38:46.317Z,19.72
2022-09-04T00:41:13.112Z,18.13
2022-09-04T00:43:39.934Z,17.83
2022-09-04T00:46:06.796Z,19.45
2022-09-04T00:48:37.002Z,20.31
2022-09-04T00:51:03.812Z,20.69
2022-09-04T00:53:30.616Z,20.95
2022-09-04T00:55:57.539Z,21.17
2022-09-04T00:58:24.545Z,21.25
2022-09-04T01:00:51.478Z,21.38
2022-09-04T01:03:18.316Z,21.48
2022-09-04T01:05:47.255Z,21.54
2022-09-04T01:08:16.588Z,21.64
2022-09-04T01:10:43.868Z,21.78
2022-09-04T01:13:12.747Z,21.81
2022-09-04T01:15:39.536Z,19.40
2022-09-04T01:18:06.530Z,18.06
2022-09-04T01:20:33.357Z,18.08
2022-09-04T01:23:00.257Z,19.50
2022-09-04T01:25:27.100Z,20.36
2022-09-04T01:27:54.551Z,20.75
2022-09-04T01:30:21.341Z,20.93
2022-09-04T01:32:48.279Z,21.07
2022-09-04T01:35:15.109Z,21.24
2022-09-04T01:37:42.101Z,21.39
2022-09-04T01:40:10.019Z,21.45
2022-09-04T01:42:36.854Z,21.58
2022-09-04T01:45:03.797Z,21.67
2022-09-04T01:47:30.610Z,21.77
2022-09-04T01:49:57.404Z,21.89
2022-09-04T01:52:24.206Z,19.96
2022-09-04T01:54:51.048Z,18.24
2022-09-04T01:57:17.843Z,17.75
2022-09-04T01:59:44.631Z,19.28
2022-09-04T02:02:11.517Z,20.20
2022-09-04T02:04:38.362Z,20.67
2022-09-04T02:07:05.174Z,20.93
2022-09-04T02:09:32.002Z,21.15
2022-09-04T02:11:58.798Z,21.29
2022-09-04T02:14:27.512Z,21.41
2022-09-04T02:16:56.269Z,21.60
2022-09-04T02:19:23.087Z,21.58
2022-09-04T02:21:49.879Z,21.64
2022-09-04T02:24:16.746Z,21.77
2022-09-04T02:26:43.569Z,21.80
2022-09-04T02:29:10.536Z,18.88
2022-09-04T02:31:39.015Z,17.74
2022-09-04T02:34:05.916Z,18.55
2022-09-04T02:36:33.736Z,19.80
2022-09-04T02:39:00.630Z,20.46
2022-09-04T02:41:27.463Z,20.78
2022-09-04T02:43:54.561Z,21.04
2022-09-04T02:46:21.890Z,21.13
2022-09-04T02:48:48.722Z,21.30
2022-09-04T02:51:15.628Z,21.48
2022-09-04T02:53:42.506Z,21.58
2022-09-04T02:56:09.519Z,21.69
2022-09-04T02:58:36.342Z,21.71
2022-09-04T03:01:03.811Z,21.79
2022-09-04T03:03:30.681Z,21.44
2022-09-04T03:05:57.529Z,18.81
2022-09-04T03:08:24.416Z,17.89
2022-09-04T03:10:51.257Z,18.86
2022-09-04T03:13:18.137Z,19.94
2022-09-04T03:15:45.101Z,20.53
2022-09-04T03:18:16.789Z,20.85
2022-09-04T03:20:43.966Z,21.05
2022-09-04T03:23:10.786Z,21.16
2022-09-04T03:25:37.656Z,21.30
2022-09-04T03:28:04.581Z,21.46
2022-09-04T03:30:31.394Z,21.57
2022-09-04T03:32:58.250Z,21.65
2022-09-04T03:35:25.653Z,21.77
2022-09-04T03:37:52.517Z,21.80
2022-09-04T03:40:19.370Z,19.97
2022-09-04T03:42:46.221Z,18.21
2022-09-04T03:45:13.236Z,18.01
2022-09-04T03:47:40.025Z,19.41
2022-09-04T03:50:06.812Z,20.28
2022-09-04T03:52:33.731Z,20.80
2022-09-04T03:55:00.555Z,20.97
2022-09-04T03:57:27.357Z,21.10
2022-09-04T03:59:54.172Z,21.31
2022-09-04T04:02:21.003Z,21.51
2022-09-04T04:04:47.795Z,21.56
2022-09-04T04:07:14.623Z,21.67
2022-09-04T04:09:41.425Z,21.66
2022-09-04T04:12:08.361Z,21.64
2022-09-04T04:14:37.679Z,19.02
2022-09-04T04:17:04.482Z,17.81
2022-09-04T04:19:33.703Z,18.52
2022-09-04T04:22:00.536Z,19.72
2022-09-04T04:24:31.383Z,20.47
2022-09-04T04:26:58.193Z,20.80
2022-09-04T04:29:26.772Z,20.89
2022-09-04T04:32:10.726Z,21.16
2022-09-04T04:34:37.583Z,21.33
2022-09-04T04:37:04.380Z,21.49
2022-09-04T04:39:31.216Z,21.55
2022-09-04T04:42:04.155Z,21.62
2022-09-04T04:44:50.926Z,21.69
2022-09-04T04:47:17.737Z,21.81
2022-09-04T04:49:44.644Z,21.08
2022-09-04T04:52:11.582Z,18.71
2022-09-04T04:54:38.392Z,17.44
2022-09-04T04:57:05.267Z,18.88
2022-09-04T04:59:32.066Z,19.99
2022-09-04T05:01:59.003Z,20.57
2022-09-04T05:04:27.393Z,20.86
2022-09-04T05:06:54.791Z,21.08
2022-09-04T05:09:21.596Z,21.19
2022-09-04T05:11:48.422Z,21.38
2022-09-04T05:14:15.212Z,21.46
2022-09-04T05:16:49.245Z,21.50
2022-09-04T05:19:19.252Z,21.64
2022-09-04T05:21:46.041Z,21.78
2022-09-04T05:24:12.849Z,21.81
2022-09-04T05:26:39.662Z,19.91
2022-09-04T05:29:06.467Z,18.13
2022-09-04T05:31:33.301Z,17.76
2022-09-04T05:34:04.479Z,19.38
2022-09-04T05:36:31.260Z,20.24
2022-09-04T05:38:58.323Z,20.63
2022-09-04T05:41:25.142Z,20.95
2022-09-04T05:43:51.924Z,21.10
2022-09-04T05:46:18.804Z,21.25
2022-09-04T05:48:45.656Z,21.36
2022-09-04T05:51:12.705Z,21.55
2022-09-04T05:53:40.291Z,21.61
2022-09-04T05:56:07.097Z,21.75
2022-09-04T05:58:34.038Z,21.80
2022-09-04T06:01:00.901Z,21.83
2022-09-04T06:03:27.737Z,20.70
2022-09-04T06:05:54.537Z,18.71
2022-09-04T06:08:25.188Z,18.66
2022-09-04T06:10:54.701Z,20.29
2022-09-04T06:13:21.544Z,20.88
2022-09-04T06:15:48.408Z,21.16
2022-09-04T06:18:15.266Z,21.37
2022-09-04T06:20:42.071Z,21.39
2022-09-04T06:23:08.877Z,21.59
2022-09-04T06:25:35.667Z,21.63
2022-09-04T06:28:02.464Z,21.76
2022-09-04T06:30:29.288Z,20.38
2022-09-04T06:32:56.093Z,18.75
2022-09-04T06:35:23.722Z,18.63
2022-09-04T06:37:50.521Z,20.30
2022-09-04T06:40:17.540Z,20.85
2022-09-04T06:42:44.338Z,21.11
2022-09-04T06:45:11.148Z,21.30
2022-09-04T06:47:37.941Z,21.41
2022-09-04T06:50:05.860Z,21.49
2022-09-04T06:52:32.673Z,21.65
2022-09-04T06:55:00.131Z,21.82
2022-09-04T06:57:28.957Z,21.88
2022-09-04T06:59:55.776Z,19.07
2022-09-04T07:02:22.873Z,18.64
2022-09-04T07:04:49.739Z,19.73
2022-09-04T07:07:16.558Z,20.67
2022-09-04T07:09:43.399Z,21.00
2022-09-04T07:12:10.205Z,21.24
2022-09-04T07:14:37.025Z,21.35
2022-09-04T07:17:03.870Z,21.50
2022-09-04T07:19:32.812Z,21.67
2022-09-04T07:22:00.525Z,21.71
2022-09-04T07:24:27.318Z,21.88
2022-09-04T07:26:54.130Z,19.80
2022-09-04T07:29:25.610Z,18.62
2022-09-04T07:31:52.933Z,19.00
2022-09-04T07:34:19.952Z,20.49
2022-09-04T07:36:47.970Z,20.94
2022-09-04T07:39:14.772Z,21.15
2022-09-04T07:41:41.578Z,21.34
2022-09-04T07:44:08.384Z,21.54
2022-09-04T07:46:35.221Z,21.57
2022-09-04T07:49:09.965Z,21.70
2022-09-04T07:51:37.757Z,21.81
2022-09-04T07:54:04.913Z,19.67
2022-09-04T07:56:31.743Z,18.61
2022-09-04T07:58:58.638Z,19.16
2022-09-04T08:01:26.487Z,20.55
2022-09-04T08:03:54.531Z,20.96
2022-09-04T08:06:22.835Z,21.23
2022-09-04T08:08:49.672Z,21.33
2022-09-04T08:11:16.684Z,21.56
2022-09-04T08:13:43.505Z,21.67
2022-09-04T08:16:10.397Z,21.68
2022-09-04T08:18:37.229Z,19.10
2022-09-04T08:21:04.207Z,18.71
2022-09-04T08:23:31.037Z,19.87
2022-09-04T08:25:57.865Z,20.80
2022-09-04T08:28:24.804Z,21.11
2022-09-04T08:30:51.800Z,21.46
2022-09-04T08:33:18.628Z,21.50
2022-09-04T08:35:45.442Z,21.62
2022-09-04T08:38:12.260Z,21.68
2022-09-04T08:40:39.197Z,21.83
2022-09-04T08:43:07.009Z,19.53
2022-09-04T08:45:42.048Z,18.62
2022-09-04T08:48:09.537Z,19.43
2022-09-04T08:50:38.041Z,20.63
2022-09-04T08:53:04.836Z,21.05
2022-09-04T08:55:32.365Z,21.25
2022-09-04T08:57:59.251Z,21.36
2022-09-04T09:00:26.054Z,21.55
2022-09-04T09:02:52.924Z,21.64
2022-09-04T09:05:19.945Z,21.80
2022-09-04T09:07:49.917Z,20.78
2022-09-04T09:10:16.751Z,18.75
2022-09-04T09:12:43.681Z,18.53
2022-09-04T09:15:10.476Z,20.38
2022-09-04T09:17:38.780Z,20.99
2022-09-04T09:20:05.598Z,21.22
2022-09-04T09:22:32.464Z,21.36
2022-09-04T09:24:59.474Z,21.57
2022-09-04T09:27:26.276Z,21.66
2022-09-04T09:29:53.082Z,21.80
2022-09-04T09:32:19.974Z,21.69
2022-09-04T09:34:46.785Z,19.30
2022-09-04T09:37:14.321Z,18.88
2022-09-04T09:39:41.168Z,20.24
2022-09-04T09:42:08.069Z,20.98
2022-09-04T09:44:35.125Z,21.29
2022-09-04T09:47:02.080Z,21.43
2022-09-04T09:49:28.920Z,21.58
2022-09-04T09:51:55.708Z,21.69
2022-09-04T09:54:22.528Z,21.78
2022-09-04T09:56:53.913Z,20.18
2022-09-04T09:59:20.961Z,18.74
2022-09-04T10:01:47.782Z,19.14
2022-09-04T10:04:14.685Z,20.65
2022-09-04T10:06:41.489Z,21.07
2022-09-04T10:09:09.488Z,21.34
2022-09-04T10:11:36.683Z,21.50
2022-09-04T10:14:03.493Z,21.61
2022-09-04T10:16:30.392Z,21.73
2022-09-04T10:18:57.289Z,21.81
2022-09-04T10:21:24.094Z,19.71
2022-09-04T10:23:50.902Z,18.85
2022-09-04T10:26:17.915Z,19.43
2022-09-04T10:28:45.029Z,20.74
2022-09-04T10:31:11.916Z,21.15
2022-09-04T10:33:38.801Z,21.41
2022-09-04T10:36:06.150Z,21.50
2022-09-04T10:38:32.953Z,21.64
2022-09-04T10:40:59.766Z,21.79
2022-09-04T10:43:26.637Z,20.33
2022-09-04T10:45:53.535Z,19.10
2022-09-04T10:48:21.720Z,18.94
2022-09-04T10:50:50.149Z,20.66
2022-09-04T10:53:21.079Z,21.10
2022-09-04T10:55:47.945Z,21.31
2022-09-04T10:58:17.023Z,21.48
2022-09-04T11:00:50.271Z,21.59
2022-09-04T11:03:17.172Z,21.74
2022-09-04T11:05:44.362Z,21.73
2022-09-04T11:08:13.834Z,19.49
2022-09-04T11:10:41.078Z,18.59
2022-09-04T11:13:08.966Z,20.03
2022-09-04T11:15:35.797Z,21.01
2022-09-04T11:18:02.588Z,21.28
2022-09-04T11:20:29.531Z,21.50
2022-09-04T11:22:56.341Z,21.60
2022-09-04T11:25:23.255Z,21.73
2022-09-04T11:27:51.797Z,21.87
2022-09-04T11:30:19.240Z,19.69
2022-09-04T11:32:52.412Z,18.57
2022-09-04T11:35:19.937Z,19.84
2022-09-04T11:37:46.998Z,20.99
2022-09-04T11:40:14.201Z,21.26
2022-09-04T11:42:41.173Z,21.46
2022-09-04T11:45:08.001Z,21.58
2022-09-04T11:47:34.966Z,21.68
2022-09-04T11:50:01.768Z,21.75
2022-09-04T11:52:28.579Z,19.60
2022-09-04T11:54:55.597Z,18.74
2022-09-04T11:57:22.438Z,20.07
2022-09-04T11:59:49.286Z,21.05
2022-09-04T12:02:16.135Z,21.33
2022-09-04T12:04:42.945Z,21.46
2022-09-04T12:07:13.940Z,21.59
2022-09-04T12:09:40.725Z,21.75
2022-09-04T12:12:08.074Z,20.94
2022-09-04T12:14:34.884Z,19.11
2022-09-04T12:17:01.824Z,18.84
2022-09-04T12:19:29.347Z,20.70
2022-09-04T12:21:57.427Z,21.23
2022-09-04T12:24:24.259Z,21.42
2022-09-04T12:26:53.604Z,21.55
2022-09-04T12:29:22.052Z,21.68
2022-09-04T12:31:51.612Z,21.82
2022-09-04T12:34:18.692Z,21.33
2022-09-04T12:36:46.195Z,18.95
2022-09-04T12:39:13.141Z,18.60
2022-09-04T12:41:39.937Z,20.62
2022-09-04T12:44:08.544Z,21.18
2022-09-04T12:46:35.606Z,21.35
2022-09-04T12:49:02.412Z,21.53
2022-09-04T12:51:30.144Z,21.63
2022-09-04T12:53:56.927Z,21.75
2022-09-04T12:56:26.141Z,21.24
2022-09-04T12:58:52.968Z,19.23
2022-09-04T13:01:19.831Z,18.75
2022-09-04T13:03:46.679Z,20.59
2022-09-04T13:06:13.483Z,21.22
2022-09-04T13:08:41.222Z,21.39
2022-09-04T13:11:08.066Z,21.57
2022-09-04T13:13:34.921Z,21.75
2022-09-04T13:16:01.795Z,21.81
2022-09-04T13:18:29.867Z,21.46
2022-09-04T13:20:56.689Z,19.31
2022-09-04T13:23:26.928Z,18.69
2022-09-04T13:25:55.036Z,20.60
2022-09-04T13:28:23.459Z,21.28
2022-09-04T13:30:50.266Z,21.50
2022-09-04T13:33:17.145Z,21.57
2022-09-04T13:35:44.008Z,21.74
2022-09-04T13:38:10.802Z,21.86
2022-09-04T13:40:37.902Z,21.19
2022-09-04T13:43:04.802Z,19.06
2022-09-04T13:45:31.600Z,18.70
2022-09-04T13:47:58.638Z,20.58
2022-09-04T13:50:26.232Z,21.23
2022-09-04T13:52:55.542Z,21.51
2022-09-04T13:55:22.416Z,21.61
2022-09-04T13:57:49.901Z,21.72
2022-09-04T14:00:17.031Z,21.86
2022-09-04T14:02:44.516Z,20.33
2022-09-04T14:05:11.475Z,18.85
2022-09-04T14:07:41.542Z,19.27
2022-09-04T14:10:11.179Z,20.90
2022-09-04T14:12:38.311Z,21.29
2022-09-04T14:15:08.005Z,21.44
2022-09-04T14:17:34.844Z,21.58
2022-09-04T14:20:01.671Z,21.79
2022-09-04T14:22:28.473Z,21.83
2022-09-04T14:24:56.230Z,20.47
2022-09-04T14:27:23.197Z,18.93
2022-09-04T14:29:49.995Z,19.27
2022-09-04T14:32:18.582Z,20.89
2022-09-04T14:34:45.379Z,21.24
2022-09-04T14:37:13.502Z,21.45
2022-09-04T14:39:40.411Z,21.62
2022-09-04T14:42:07.246Z,21.75
2022-09-04T14:44:35.597Z,21.74
2022-09-04T14:47:02.490Z,19.40
2022-09-04T14:49:31.807Z,18.67
2022-09-04T14:51:59.063Z,20.32
2022-09-04T14:54:25.897Z,21.16
2022-09-04T14:56:52.707Z,21.40
2022-09-04T14:59:19.496Z,21.58
2022-09-04T15:01:46.321Z,21.67
2022-09-04T15:04:13.198Z,21.83
2022-09-04T15:06:54.801Z,20.33
2022-09-04T15:09:26.816Z,18.78
2022-09-04T15:12:14.401Z,19.41
2022-09-04T15:14:42.352Z,20.99
2022-09-04T15:17:09.137Z,21.28
2022-09-04T15:19:36.082Z,21.43
2022-09-04T15:22:02.895Z,21.57
2022-09-04T15:24:29.741Z,21.72
2022-09-04T15:26:56.613Z,21.81
2022-09-04T15:29:25.008Z,20.48
2022-09-04T15:31:51.861Z,18.85
2022-09-04T15:34:18.961Z,19.27
2022-09-04T15:36:45.760Z,20.86
2022-09-04T15:39:18.301Z,21.24
2022-09-04T15:41:46.942Z,21.48
2022-09-04T15:44:13.740Z,21.66
2022-09-04T15:46:40.762Z,21.69
2022-09-04T15:49:07.617Z,21.80
2022-09-04T15:51:34.405Z,19.55
2022-09-04T15:54:01.718Z,18.79
2022-09-04T15:56:28.581Z,20.15
2022-09-04T15:58:55.564Z,21.04
2022-09-04T16:01:22.851Z,21.36
2022-09-04T16:03:51.794Z,21.48
2022-09-04T16:06:19.230Z,21.71
2022-09-04T16:08:46.978Z,21.68
2022-09-04T16:11:16.548Z,19.20
2022-09-04T16:13:43.345Z,18.51
2022-09-04T16:16:10.207Z,20.30
2022-09-04T16:18:37.087Z,21.06
2022-09-04T16:21:03.884Z,21.31
2022-09-04T16:23:31.445Z,21.44
2022-09-04T16:25:59.748Z,21.61
2022-09-04T16:28:26.570Z,21.73
2022-09-04T16:30:53.399Z,21.80
2022-09-04T16:33:27.297Z,19.42
2022-09-04T16:35:55.183Z,18.65
2022-09-04T16:38:24.205Z,20.26
2022-09-04T16:40:54.197Z,21.11
2022-09-04T16:43:21.628Z,21.35
2022-09-04T16:45:48.809Z,21.51
2022-09-04T16:48:34.539Z,21.74
2022-09-04T16:51:09.886Z,21.80
2022-09-04T16:53:52.168Z,20.10
2022-09-04T16:56:18.983Z,18.86
2022-09-04T16:58:46.036Z,19.60
2022-09-04T17:01:14.214Z,20.91
2022-09-04T17:03:41.925Z,21.30
2022-09-04T17:06:08.977Z,21.47
2022-09-04T17:08:35.802Z,21.63
2022-09-04T17:11:04.145Z,21.73
2022-09-04T17:13:30.936Z,21.83
2022-09-04T17:16:03.938Z,20.05
2022-09-04T17:18:30.827Z,18.75
2022-09-04T17:26:00.838Z,19.37
2022-09-04T17:28:57.815Z,20.88
2022-09-04T17:29:07.929Z,21.16
2022-09-04T17:29:33.782Z,21.41
2022-09-04T17:32:14.252Z,21.64
2022-09-04T17:40:48.711Z,21.56
2022-09-04T17:40:56.942Z,21.76
2022-09-04T17:41:34.534Z,19.05
2022-09-04T17:43:23.589Z,18.75
2022-09-04T17:45:51.320Z,20.56
2022-09-04T17:48:18.195Z,21.07
2022-09-04T17:50:45.428Z,21.31
2022-09-04T17:53:33.225Z,21.50
2022-09-04T17:55:59.348Z,21.67
2022-09-04T17:58:35.381Z,21.77
2022-09-04T18:01:15.214Z,21.34
2022-09-04T18:04:02.902Z,19.14
2022-09-04T18:06:31.496Z,19.03
2022-09-04T18:08:58.294Z,20.64
2022-09-04T18:11:25.089Z,21.05
2022-09-04T18:13:53.226Z,21.31
2022-09-04T18:16:20.108Z,21.58
2022-09-04T18:18:46.993Z,21.68
2022-09-04T18:21:14.180Z,21.80
2022-09-04T18:23:50.973Z,21.16
2022-09-04T18:26:18.619Z,19.11
2022-09-04T18:28:50.454Z,18.77
2022-09-04T18:37:11.870Z,20.58
2022-09-04T18:37:21.337Z,21.34
2022-09-04T18:37:21.499Z,21.13
2022-09-04T18:39:38.197Z,21.51
2022-09-04T18:49:52.769Z,21.72
2022-09-04T18:50:39.645Z,19.85
2022-09-04T18:50:50.179Z,21.88
2022-09-04T18:51:05.777Z,18.93
2022-09-04T18:53:12.266Z,20.03
2022-09-04T18:55:39.089Z,20.89
2022-09-04T18:58:05.894Z,21.23
2022-09-04T19:00:32.733Z,21.36
2022-09-04T19:02:59.553Z,21.61
2022-09-04T19:05:26.349Z,21.65
2022-09-04T19:07:53.792Z,21.75
2022-09-04T19:10:20.643Z,20.39
2022-09-04T19:12:48.042Z,19.02
2022-09-04T19:15:14.883Z,18.86
2022-09-04T19:17:41.732Z,20.50
2022-09-04T19:20:08.684Z,21.00
2022-09-04T19:22:35.520Z,21.22
2022-09-04T19:25:04.229Z,21.39
2022-09-04T19:27:31.014Z,21.57
2022-09-04T19:30:03.166Z,21.69
2022-09-04T19:32:44.788Z,21.78
2022-09-04T19:35:11.963Z,20.43
2022-09-04T19:40:58.430Z,18.90
2022-09-04T19:46:03.557Z,19.11
2022-09-04T19:46:07.640Z,20.75
2022-09-04T19:46:27.867Z,21.15
2022-09-04T19:49:31.414Z,21.33
2022-09-04T19:53:24.470Z,21.48
2022-09-04T19:54:22.985Z,21.61
2022-09-04T19:57:31.171Z,21.79
2022-09-04T19:59:36.620Z,19.85
2022-09-04T20:02:03.805Z,18.69
2022-09-04T20:04:30.756Z,19.08
2022-09-04T20:06:59.128Z,20.56
2022-09-04T20:09:26.340Z,20.95
2022-09-04T20:11:53.189Z,21.19
2022-09-04T20:14:20.041Z,21.42
2022-09-04T20:16:47.937Z,21.55
2022-09-04T20:19:16.885Z,21.72
2022-09-04T20:21:54.374Z,21.82
2022-09-04T20:24:21.162Z,21.49
2022-09-04T20:26:47.955Z,19.12
2022-09-04T20:29:14.821Z,18.65
2022-09-04T20:31:41.798Z,20.11
2022-09-04T20:34:09.663Z,20.87
2022-09-04T20:36:36.726Z,21.19
2022-09-04T20:39:03.535Z,21.30
2022-09-04T20:41:31.457Z,21.54
2022-09-04T20:43:58.372Z,21.58
2022-09-04T20:50:21.789Z,21.71
2022-09-04T20:52:56.254Z,21.70
2022-09-04T20:53:06.290Z,18.82
2022-09-04T20:54:45.631Z,18.52
2022-09-04T20:59:15.181Z,20.32
2022-09-04T21:03:12.922Z,20.98
2022-09-04T21:03:24.845Z,21.21
2022-09-04T21:05:33.401Z,21.43
2022-09-04T21:08:00.578Z,21.55
2022-09-04T21:10:27.378Z,21.68
2022-09-04T21:13:12.843Z,21.81
2022-09-04T21:15:41.114Z,21.67
2022-09-04T21:18:07.935Z,19.31
2022-09-04T21:20:34.743Z,18.56
2022-09-04T21:23:05.418Z,19.85
2022-09-04T21:25:32.994Z,20.79
2022-09-04T21:27:59.818Z,21.11
2022-09-04T21:30:26.605Z,21.30
2022-09-04T21:32:53.419Z,21.43
2022-09-04T21:35:28.072Z,21.55
2022-09-04T21:37:54.899Z,21.72
2022-09-04T21:40:49.542Z,21.78
2022-09-04T21:43:10.599Z,20.29
2022-09-04T21:45:37.394Z,18.84
2022-09-04T21:48:04.862Z,18.98
2022-09-04T21:50:31.772Z,20.67
2022-09-04T21:52:58.590Z,21.09
2022-09-04T21:58:21.279Z,21.25
2022-09-04T22:02:27.527Z,21.45
2022-09-04T22:02:40.457Z,21.61
2022-09-04T22:03:45.979Z,21.76
2022-09-04T22:06:12.915Z,21.87
2022-09-04T22:13:26.341Z,20.48
2022-09-04T22:13:29.712Z,18.97
2022-09-04T22:14:13.357Z,19.45
2022-09-04T22:16:42.190Z,20.79
2022-09-04T22:19:16.001Z,21.13
2022-09-04T22:21:43.704Z,21.35
2022-09-04T22:24:10.496Z,21.48
2022-09-04T22:26:37.296Z,21.58
2022-09-04T22:29:04.224Z,21.75
2022-09-04T22:31:31.086Z,21.85
2022-09-04T22:34:15.369Z,20.07
2022-09-04T22:36:45.141Z,18.79
2022-09-04T22:39:14.612Z,19.55
2022-09-04T22:41:41.413Z,20.72
2022-09-04T22:44:08.228Z,21.12
2022-09-04T22:46:35.085Z,21.32
2022-09-04T22:49:13.119Z,21.45
2022-09-04T22:51:40.197Z,21.62
2022-09-04T22:54:07.030Z,21.74
2022-09-04T22:56:33.820Z,21.78
2022-09-04T22:59:20.379Z,21.86
2022-09-04T23:01:47.577Z,19.37
2022-09-04T23:04:14.518Z,18.92
2022-09-04T23:09:22.114Z,20.02
2022-09-04T23:14:00.808Z,21.29
2022-09-04T23:14:01.020Z,20.97
2022-09-04T23:15:08.682Z,21.44
2022-09-04T23:17:35.829Z,21.51
2022-09-04T23:26:30.890Z,21.69
2022-09-04T23:26:46.614Z,19.17
2022-09-04T23:26:47.562Z,21.76
2022-09-04T23:28:29.872Z,18.76
2022-09-04T23:30:57.304Z,20.37
2022-09-04T23:33:27.255Z,20.95
2022-09-04T23:35:55.109Z,21.23
2022-09-04T23:38:21.922Z,21.46
2022-09-04T23:40:48.962Z,21.53
2022-09-04T23:43:18.567Z,21.67
2022-09-04T23:45:59.309Z,21.84
2022-09-04T23:48:28.837Z,20.70
2022-09-04T23:50:55.641Z,18.82
2022-09-04T23:53:22.504Z,18.53
2022-09-04T23:55:49.853Z,20.33
2022-09-04T23:58:35.300Z,20.86
